sensor_id;sensor_type;location;lat;lon;timestamp;pressure;altitude;pressure_sealevel;temperature;humidity
80627;BME280;69982;51.758;5.784;2023-11-19T00:01:20;100836.68;;;13.73;88.16
80627;BME280;69982;51.758;5.784;2023-11-19T00:03:52;100827.41;;;13.76;88.11
80627;BME280;69982;51.758;5.784;2023-11-19T00:06:22;100825.79;;;13.77;88.05
80627;BME280;69982;51.758;5.784;2023-11-19T00:09:09;100821.09;;;13.77;87.97
80627;BME280;69982;51.758;5.784;2023-11-19T00:12:19;100816.91;;;13.78;87.76
80627;BME280;69982;51.758;5.784;2023-11-19T00:14:55;100813.25;;;13.81;87.81
80627;BME280;69982;51.758;5.784;2023-11-19T00:17:30;100806.68;;;13.83;87.74
80627;BME280;69982;51.758;5.784;2023-11-19T00:20:12;100805.62;;;13.84;87.64
80627;BME280;69982;51.758;5.784;2023-11-19T00:22:39;100800.06;;;13.86;87.72
80627;BME280;69982;51.758;5.784;2023-11-19T00:25:29;100781.65;;;13.91;87.67
80627;BME280;69982;51.758;5.784;2023-11-19T00:28:15;100772.02;;;13.94;87.58
80627;BME280;69982;51.758;5.784;2023-11-19T00:30:43;100778.75;;;13.94;87.37
80627;BME280;69982;51.758;5.784;2023-11-19T00:33:13;100785.47;;;13.91;87.36
80627;BME280;69982;51.758;5.784;2023-11-19T00:35:41;100785.38;;;13.90;87.32
80627;BME280;69982;51.758;5.784;2023-11-19T00:38:09;100784.92;;;13.91;87.30
80627;BME280;69982;51.758;5.784;2023-11-19T00:40:37;100776.75;;;13.92;87.15
80627;BME280;69982;51.758;5.784;2023-11-19T00:43:03;100774.50;;;13.93;87.13
80627;BME280;69982;51.758;5.784;2023-11-19T00:45:46;100765.65;;;13.94;86.95
80627;BME280;69982;51.758;5.784;2023-11-19T00:48:20;100773.95;;;13.93;86.88
80627;BME280;69982;51.758;5.784;2023-11-19T00:50:48;100775.30;;;13.94;86.98
80627;BME280;69982;51.758;5.784;2023-11-19T00:53:16;100775.98;;;13.97;86.91
80627;BME280;69982;51.758;5.784;2023-11-19T00:55:45;100782.06;;;14.00;86.79
80627;BME280;69982;51.758;5.784;2023-11-19T00:58:16;100777.61;;;14.00;86.76
80627;BME280;69982;51.758;5.784;2023-11-19T01:01:06;100779.08;;;14.00;86.59
80627;BME280;69982;51.758;5.784;2023-11-19T01:03:52;100780.41;;;13.99;86.40
80627;BME280;69982;51.758;5.784;2023-11-19T01:06:33;100779.31;;;13.98;86.34
80627;BME280;69982;51.758;5.784;2023-11-19T01:09:03;100784.99;;;13.99;86.34
80627;BME280;69982;51.758;5.784;2023-11-19T01:11:32;100775.80;;;14.00;86.51
80627;BME280;69982;51.758;5.784;2023-11-19T01:14:11;100772.90;;;14.03;86.28
80627;BME280;69982;51.758;5.784;2023-11-19T01:16:43;100770.59;;;14.02;86.06
80627;BME280;69982;51.758;5.784;2023-11-19T01:19:32;100772.34;;;14.01;86.24
80627;BME280;69982;51.758;5.784;2023-11-19T01:22:06;100771.63;;;14.01;86.05
80627;BME280;69982;51.758;5.784;2023-11-19T01:24:37;100767.13;;;14.01;85.88
80627;BME280;69982;51.758;5.784;2023-11-19T01:27:14;100775.77;;;14.00;85.90
80627;BME280;69982;51.758;5.784;2023-11-19T01:30:02;100774.03;;;14.00;85.89
80627;BME280;69982;51.758;5.784;2023-11-19T01:32:34;100764.73;;;14.01;85.76
80627;BME280;69982;51.758;5.784;2023-11-19T01:35:03;100751.64;;;14.03;85.61
80627;BME280;69982;51.758;5.784;2023-11-19T01:37:45;100745.84;;;14.05;85.57
80627;BME280;69982;51.758;5.784;2023-11-19T01:40:19;100734.41;;;14.05;85.13
80627;BME280;69982;51.758;5.784;2023-11-19T01:43:04;100742.80;;;14.03;85.24
80627;BME280;69982;51.758;5.784;2023-11-19T01:45:46;100745.89;;;14.02;85.08
80627;BME280;69982;51.758;5.784;2023-11-19T01:48:13;100744.62;;;14.02;84.99
80627;BME280;69982;51.758;5.784;2023-11-19T01:50:53;100750.09;;;14.02;84.96
80627;BME280;69982;51.758;5.784;2023-11-19T01:53:46;100758.66;;;14.03;84.88
80627;BME280;69982;51.758;5.784;2023-11-19T01:56:31;100759.33;;;14.02;84.72
80627;BME280;69982;51.758;5.784;2023-11-19T01:59:07;100761.00;;;14.02;84.73
80627;BME280;69982;51.758;5.784;2023-11-19T02:01:43;100762.94;;;14.02;84.80
80627;BME280;69982;51.758;5.784;2023-11-19T02:04:29;100757.43;;;14.01;84.87
80627;BME280;69982;51.758;5.784;2023-11-19T02:06:58;100749.14;;;14.01;84.97
80627;BME280;69982;51.758;5.784;2023-11-19T02:09:26;100742.16;;;14.03;84.81
80627;BME280;69982;51.758;5.784;2023-11-19T02:11:58;100747.98;;;14.03;84.56
80627;BME280;69982;51.758;5.784;2023-11-19T02:14:35;100749.37;;;14.02;84.28
80627;BME280;69982;51.758;5.784;2023-11-19T02:17:06;100741.41;;;14.03;84.20
80627;BME280;69982;51.758;5.784;2023-11-19T02:19:50;100737.61;;;14.03;84.18
80627;BME280;69982;51.758;5.784;2023-11-19T02:22:17;100737.23;;;14.01;84.08
80627;BME280;69982;51.758;5.784;2023-11-19T02:24:51;100735.91;;;13.97;83.75
80627;BME280;69982;51.758;5.784;2023-11-19T02:27:36;100735.08;;;13.94;83.87
80627;BME280;69982;51.758;5.784;2023-11-19T02:30:14;100732.80;;;13.94;84.06
80627;BME280;69982;51.758;5.784;2023-11-19T02:32:41;100738.33;;;13.96;83.96
80627;BME280;69982;51.758;5.784;2023-11-19T02:35:11;100735.69;;;13.96;83.74
80627;BME280;69982;51.758;5.784;2023-11-19T02:37:41;100738.23;;;13.95;83.68
80627;BME280;69982;51.758;5.784;2023-11-19T02:40:27;100739.33;;;13.92;83.56
80627;BME280;69982;51.758;5.784;2023-11-19T02:43:16;100741.14;;;13.89;83.22
80627;BME280;69982;51.758;5.784;2023-11-19T02:45:46;100742.37;;;13.86;82.96
80627;BME280;69982;51.758;5.784;2023-11-19T02:48:21;100742.63;;;13.84;83.11
80627;BME280;69982;51.758;5.784;2023-11-19T02:51:05;100744.02;;;13.82;82.68
80627;BME280;69982;51.758;5.784;2023-11-19T02:53:45;100753.10;;;13.79;82.58
80627;BME280;69982;51.758;5.784;2023-11-19T02:56:22;100742.94;;;13.76;82.35
80627;BME280;69982;51.758;5.784;2023-11-19T02:59:15;100746.26;;;13.70;81.84
80627;BME280;69982;51.758;5.784;2023-11-19T03:02:02;100744.66;;;13.67;81.65
80627;BME280;69982;51.758;5.784;2023-11-19T03:04:39;100737.27;;;13.63;81.57
80627;BME280;69982;51.758;5.784;2023-11-19T03:07:26;100736.00;;;13.60;81.08
80627;BME280;69982;51.758;5.784;2023-11-19T03:10:12;100740.06;;;13.56;80.94
80627;BME280;69982;51.758;5.784;2023-11-19T03:12:46;100739.17;;;13.53;81.15
80627;BME280;69982;51.758;5.784;2023-11-19T03:15:18;100739.39;;;13.50;81.23
80627;BME280;69982;51.758;5.784;2023-11-19T03:17:48;100740.10;;;13.47;81.27
80627;BME280;69982;51.758;5.784;2023-11-19T03:20:21;100738.91;;;13.47;81.17
80627;BME280;69982;51.758;5.784;2023-11-19T03:22:56;100735.71;;;13.46;81.28
80627;BME280;69982;51.758;5.784;2023-11-19T03:25:49;100739.81;;;13.45;80.93
80627;BME280;69982;51.758;5.784;2023-11-19T03:28:29;100738.40;;;13.41;80.48
80627;BME280;69982;51.758;5.784;2023-11-19T03:31:06;100742.02;;;13.36;80.42
80627;BME280;69982;51.758;5.784;2023-11-19T03:33:40;100737.76;;;13.31;80.49
80627;BME280;69982;51.758;5.784;2023-11-19T03:36:32;100745.63;;;13.27;80.50
80627;BME280;69982;51.758;5.784;2023-11-19T03:39:03;100731.85;;;13.24;80.51
80627;BME280;69982;51.758;5.784;2023-11-19T03:41:34;100729.36;;;13.22;80.58
80627;BME280;69982;51.758;5.784;2023-11-19T03:44:08;100724.01;;;13.19;80.40
80627;BME280;69982;51.758;5.784;2023-11-19T03:46:55;100725.90;;;13.13;80.56
80627;BME280;69982;51.758;5.784;2023-11-19T03:49:32;100723.32;;;13.09;80.82
80627;BME280;69982;51.758;5.784;2023-11-19T03:52:03;100725.81;;;13.08;80.74
80627;BME280;69982;51.758;5.784;2023-11-19T03:54:54;100722.97;;;13.06;80.78
80627;BME280;69982;51.758;5.784;2023-11-19T03:57:44;100721.90;;;13.04;80.65
80627;BME280;69982;51.758;5.784;2023-11-19T04:00:18;100722.89;;;13.01;80.59
80627;BME280;69982;51.758;5.784;2023-11-19T04:02:58;100735.06;;;12.96;80.47
80627;BME280;69982;51.758;5.784;2023-11-19T04:05:28;100736.77;;;12.91;80.40
80627;BME280;69982;51.758;5.784;2023-11-19T04:08:11;100737.98;;;12.88;80.30
80627;BME280;69982;51.758;5.784;2023-11-19T04:10:50;100733.39;;;12.84;80.33
80627;BME280;69982;51.758;5.784;2023-11-19T04:13:25;100729.96;;;12.82;80.25
80627;BME280;69982;51.758;5.784;2023-11-19T04:15:54;100731.48;;;12.79;80.00
80627;BME280;69982;51.758;5.784;2023-11-19T04:18:48;100732.19;;;12.73;79.87
80627;BME280;69982;51.758;5.784;2023-11-19T04:21:14;100739.34;;;12.68;79.52
80627;BME280;69982;51.758;5.784;2023-11-19T04:23:42;100738.39;;;12.64;79.44
80627;BME280;69982;51.758;5.784;2023-11-19T04:26:14;100737.34;;;12.59;79.26
80627;BME280;69982;51.758;5.784;2023-11-19T04:28:43;100742.13;;;12.55;79.19
80627;BME280;69982;51.758;5.784;2023-11-19T04:31:13;100746.43;;;12.53;79.30
80627;BME280;69982;51.758;5.784;2023-11-19T04:33:44;100751.91;;;12.48;79.33
80627;BME280;69982;51.758;5.784;2023-11-19T04:36:13;100762.36;;;12.44;79.45
80627;BME280;69982;51.758;5.784;2023-11-19T04:38:45;100765.20;;;12.42;79.49
80627;BME280;69982;51.758;5.784;2023-11-19T04:41:13;100769.30;;;12.41;79.58
80627;BME280;69982;51.758;5.784;2023-11-19T04:43:55;100770.72;;;12.41;79.76
80627;BME280;69982;51.758;5.784;2023-11-19T04:46:24;100765.38;;;12.42;79.74
80627;BME280;69982;51.758;5.784;2023-11-19T04:49:23;100768.09;;;12.42;79.89
80627;BME280;69982;51.758;5.784;2023-11-19T04:52:10;100765.15;;;12.39;79.70
80627;BME280;69982;51.758;5.784;2023-11-19T04:54:41;100763.93;;;12.39;79.67
80627;BME280;69982;51.758;5.784;2023-11-19T04:57:10;100768.30;;;12.37;79.46
80627;BME280;69982;51.758;5.784;2023-11-19T04:59:42;100764.16;;;12.33;79.56
80627;BME280;69982;51.758;5.784;2023-11-19T05:02:14;100764.92;;;12.29;79.41
80627;BME280;69982;51.758;5.784;2023-11-19T05:05:18;100764.31;;;12.24;79.30
80627;BME280;69982;51.758;5.784;2023-11-19T05:07:49;100758.81;;;12.23;79.22
80627;BME280;69982;51.758;5.784;2023-11-19T05:10:19;100755.71;;;12.23;79.41
80627;BME280;69982;51.758;5.784;2023-11-19T05:12:51;100755.89;;;12.23;79.01
80627;BME280;69982;51.758;5.784;2023-11-19T05:15:19;100760.63;;;12.20;78.90
80627;BME280;69982;51.758;5.784;2023-11-19T05:17:48;100764.05;;;12.17;79.08
80627;BME280;69982;51.758;5.784;2023-11-19T05:20:14;100762.42;;;12.15;78.97
80627;BME280;69982;51.758;5.784;2023-11-19T05:22:43;100763.27;;;12.14;78.87
80627;BME280;69982;51.758;5.784;2023-11-19T05:25:11;100759.91;;;12.14;78.71
80627;BME280;69982;51.758;5.784;2023-11-19T05:28:01;100757.75;;;12.12;78.60
80627;BME280;69982;51.758;5.784;2023-11-19T05:30:48;100755.55;;;12.09;78.68
80627;BME280;69982;51.758;5.784;2023-11-19T05:33:39;100758.11;;;12.06;78.66
80627;BME280;69982;51.758;5.784;2023-11-19T05:36:17;100757.92;;;12.05;78.61
80627;BME280;69982;51.758;5.784;2023-11-19T05:39:00;100755.72;;;12.03;78.71
80627;BME280;69982;51.758;5.784;2023-11-19T05:41:47;100757.94;;;12.01;78.75
80627;BME280;69982;51.758;5.784;2023-11-19T05:44:17;100766.72;;;11.99;78.74
80627;BME280;69982;51.758;5.784;2023-11-19T05:46:55;100768.16;;;11.96;78.82
80627;BME280;69982;51.758;5.784;2023-11-19T05:49:45;100771.02;;;11.96;78.87
80627;BME280;69982;51.758;5.784;2023-11-19T05:52:15;100787.08;;;11.97;78.73
80627;BME280;69982;51.758;5.784;2023-11-19T05:54:50;100796.77;;;11.96;78.79
80627;BME280;69982;51.758;5.784;2023-11-19T05:57:20;100795.42;;;11.94;78.74
80627;BME280;69982;51.758;5.784;2023-11-19T05:59:57;100793.21;;;11.93;78.86
80627;BME280;69982;51.758;5.784;2023-11-19T06:02:47;100789.33;;;11.93;78.90
80627;BME280;69982;51.758;5.784;2023-11-19T06:05:16;100784.58;;;11.94;78.80
80627;BME280;69982;51.758;5.784;2023-11-19T06:07:42;100774.33;;;11.94;78.89
80627;BME280;69982;51.758;5.784;2023-11-19T06:10:28;100769.17;;;11.92;78.84
80627;BME280;69982;51.758;5.784;2023-11-19T06:13:27;100775.27;;;11.89;79.07
80627;BME280;69982;51.758;5.784;2023-11-19T06:16:20;100768.77;;;11.87;79.07
80627;BME280;69982;51.758;5.784;2023-11-19T06:18:48;100766.63;;;11.89;79.07
80627;BME280;69982;51.758;5.784;2023-11-19T06:21:22;100773.19;;;11.90;78.99
80627;BME280;69982;51.758;5.784;2023-11-19T06:23:53;100777.38;;;11.88;78.91
80627;BME280;69982;51.758;5.784;2023-11-19T06:26:49;100775.83;;;11.86;78.83
80627;BME280;69982;51.758;5.784;2023-11-19T06:29:16;100774.44;;;11.84;78.92
80627;BME280;69982;51.758;5.784;2023-11-19T06:31:45;100771.63;;;11.83;78.90
80627;BME280;69982;51.758;5.784;2023-11-19T06:34:43;100768.11;;;11.84;78.83
80627;BME280;69982;51.758;5.784;2023-11-19T06:37:35;100766.58;;;11.85;78.76
80627;BME280;69982;51.758;5.784;2023-11-19T06:40:20;100767.23;;;11.84;78.75
80627;BME280;69982;51.758;5.784;2023-11-19T06:42:51;100767.81;;;11.82;78.75
80627;BME280;69982;51.758;5.784;2023-11-19T06:45:18;100767.31;;;11.80;78.91
80627;BME280;69982;51.758;5.784;2023-11-19T06:47:48;100775.70;;;11.81;78.88
80627;BME280;69982;51.758;5.784;2023-11-19T06:50:19;100777.88;;;11.83;78.63
80627;BME280;69982;51.758;5.784;2023-11-19T06:53:08;100785.67;;;11.83;78.64
80627;BME280;69982;51.758;5.784;2023-11-19T06:55:52;100791.63;;;11.81;78.52
80627;BME280;69982;51.758;5.784;2023-11-19T06:58:18;100800.98;;;11.79;78.74
80627;BME280;69982;51.758;5.784;2023-11-19T07:01:08;100793.68;;;11.76;78.91
80627;BME280;69982;51.758;5.784;2023-11-19T07:03:52;100797.91;;;11.74;78.95
80627;BME280;69982;51.758;5.784;2023-11-19T07:06:24;100801.55;;;11.72;79.04
80627;BME280;69982;51.758;5.784;2023-11-19T07:09:28;100814.16;;;11.71;79.09
80627;BME280;69982;51.758;5.784;2023-11-19T07:11:56;100814.33;;;11.71;79.05
80627;BME280;69982;51.758;5.784;2023-11-19T07:14:39;100816.67;;;11.71;79.05
80627;BME280;69982;51.758;5.784;2023-11-19T07:17:16;100816.30;;;11.70;79.17
80627;BME280;69982;51.758;5.784;2023-11-19T07:19:44;100818.90;;;11.69;79.09
80627;BME280;69982;51.758;5.784;2023-11-19T07:22:18;100816.89;;;11.67;78.99
80627;BME280;69982;51.758;5.784;2023-11-19T07:24:48;100823.59;;;11.67;78.99
80627;BME280;69982;51.758;5.784;2023-11-19T07:27:31;100824.60;;;11.70;78.92
80627;BME280;69982;51.758;5.784;2023-11-19T07:30:09;100825.55;;;11.69;78.91
80627;BME280;69982;51.758;5.784;2023-11-19T07:32:37;100831.06;;;11.69;78.97
80627;BME280;69982;51.758;5.784;2023-11-19T07:35:18;100838.85;;;11.67;79.10
80627;BME280;69982;51.758;5.784;2023-11-19T07:38:27;100841.43;;;11.70;79.31
80627;BME280;69982;51.758;5.784;2023-11-19T07:41:02;100852.00;;;11.75;79.33
80627;BME280;69982;51.758;5.784;2023-11-19T07:43:52;100854.54;;;11.78;79.16
80627;BME280;69982;51.758;5.784;2023-11-19T07:46:34;100856.71;;;11.80;79.11
80627;BME280;69982;51.758;5.784;2023-11-19T07:49:13;100849.58;;;11.81;79.20
80627;BME280;69982;51.758;5.784;2023-11-19T07:52:03;100851.51;;;11.81;79.25
80627;BME280;69982;51.758;5.784;2023-11-19T07:54:36;100848.06;;;11.84;79.24
80627;BME280;69982;51.758;5.784;2023-11-19T07:57:24;100854.31;;;11.88;78.95
80627;BME280;69982;51.758;5.784;2023-11-19T08:00:01;100851.45;;;11.91;78.92
80627;BME280;69982;51.758;5.784;2023-11-19T08:02:31;100853.81;;;11.94;78.83
80627;BME280;69982;51.758;5.784;2023-11-19T08:05:13;100844.47;;;11.93;78.70
80627;BME280;69982;51.758;5.784;2023-11-19T08:08:02;100845.08;;;11.93;78.64
80627;BME280;69982;51.758;5.784;2023-11-19T08:10:32;100841.06;;;11.94;78.53
80627;BME280;69982;51.758;5.784;2023-11-19T08:13:11;100842.04;;;11.99;78.55
80627;BME280;69982;51.758;5.784;2023-11-19T08:15:58;100845.80;;;12.04;78.43
80627;BME280;69982;51.758;5.784;2023-11-19T08:18:29;100856.95;;;12.06;78.14
80627;BME280;69982;51.758;5.784;2023-11-19T08:21:36;100850.00;;;12.08;78.34
80627;BME280;69982;51.758;5.784;2023-11-19T08:24:10;100855.27;;;12.10;78.25
80627;BME280;69982;51.758;5.784;2023-11-19T08:26:42;100854.64;;;12.14;78.44
80627;BME280;69982;51.758;5.784;2023-11-19T08:29:08;100853.94;;;12.18;78.22
80627;BME280;69982;51.758;5.784;2023-11-19T08:31:56;100858.56;;;12.20;77.87
80627;BME280;69982;51.758;5.784;2023-11-19T08:34:30;100855.71;;;12.20;77.87
80627;BME280;69982;51.758;5.784;2023-11-19T08:37:18;100852.05;;;12.20;77.94
80627;BME280;69982;51.758;5.784;2023-11-19T08:39:50;100854.77;;;12.23;78.14
80627;BME280;69982;51.758;5.784;2023-11-19T08:42:36;100856.41;;;12.28;78.04
80627;BME280;69982;51.758;5.784;2023-11-19T08:45:11;100857.12;;;12.33;77.99
80627;BME280;69982;51.758;5.784;2023-11-19T08:47:42;100857.16;;;12.36;78.00
80627;BME280;69982;51.758;5.784;2023-11-19T08:50:12;100855.65;;;12.40;77.47
80627;BME280;69982;51.758;5.784;2023-11-19T08:52:44;100853.67;;;12.41;77.69
80627;BME280;69982;51.758;5.784;2023-11-19T08:55:27;100855.84;;;12.44;77.68
80627;BME280;69982;51.758;5.784;2023-11-19T08:58:05;100860.20;;;12.49;77.49
80627;BME280;69982;51.758;5.784;2023-11-19T09:00:58;100867.39;;;12.54;77.48
80627;BME280;69982;51.758;5.784;2023-11-19T09:03:31;100860.13;;;12.57;76.94
80627;BME280;69982;51.758;5.784;2023-11-19T09:06:02;100863.19;;;12.57;76.62
80627;BME280;69982;51.758;5.784;2023-11-19T09:08:39;100864.77;;;12.56;76.82
80627;BME280;69982;51.758;5.784;2023-11-19T09:11:10;100861.50;;;12.55;76.82
80627;BME280;69982;51.758;5.784;2023-11-19T09:13:59;100855.44;;;12.57;76.84
80627;BME280;69982;51.758;5.784;2023-11-19T09:16:30;100859.54;;;12.59;76.57
80627;BME280;69982;51.758;5.784;2023-11-19T09:19:16;100864.91;;;12.60;76.66
80627;BME280;69982;51.758;5.784;2023-11-19T09:21:56;100864.95;;;12.58;76.87
80627;BME280;69982;51.758;5.784;2023-11-19T09:24:34;100869.70;;;12.56;76.61
80627;BME280;69982;51.758;5.784;2023-11-19T09:27:06;100870.48;;;12.57;76.90
80627;BME280;69982;51.758;5.784;2023-11-19T09:29:42;100867.77;;;12.60;77.03
80627;BME280;69982;51.758;5.784;2023-11-19T09:32:19;100869.26;;;12.63;76.83
80627;BME280;69982;51.758;5.784;2023-11-19T09:34:50;100867.96;;;12.63;76.58
80627;BME280;69982;51.758;5.784;2023-11-19T09:37:34;100870.73;;;12.63;76.53
80627;BME280;69982;51.758;5.784;2023-11-19T09:40:12;100867.19;;;12.62;76.59
80627;BME280;69982;51.758;5.784;2023-11-19T09:42:59;100858.73;;;12.63;76.50
80627;BME280;69982;51.758;5.784;2023-11-19T09:45:38;100856.56;;;12.66;76.64
80627;BME280;69982;51.758;5.784;2023-11-19T09:48:14;100853.69;;;12.70;76.61
80627;BME280;69982;51.758;5.784;2023-11-19T09:50:54;100853.10;;;12.72;76.19
80627;BME280;69982;51.758;5.784;2023-11-19T09:53:29;100854.28;;;12.73;76.21
80627;BME280;69982;51.758;5.784;2023-11-19T09:56:05;100853.85;;;12.76;76.35
80627;BME280;69982;51.758;5.784;2023-11-19T09:58:40;100844.61;;;12.79;76.13
80627;BME280;69982;51.758;5.784;2023-11-19T10:01:12;100851.45;;;12.89;76.31
80627;BME280;69982;51.758;5.784;2023-11-19T10:03:55;100853.27;;;13.01;76.37
80627;BME280;69982;51.758;5.784;2023-11-19T10:06:33;100854.98;;;13.10;76.17
80627;BME280;69982;51.758;5.784;2023-11-19T10:09:12;100857.30;;;13.15;75.80
80627;BME280;69982;51.758;5.784;2023-11-19T10:11:45;100857.77;;;13.20;75.80
80627;BME280;69982;51.758;5.784;2023-11-19T10:14:20;100848.30;;;13.23;75.97
80627;BME280;69982;51.758;5.784;2023-11-19T10:16:52;100849.64;;;13.26;75.70
80627;BME280;69982;51.758;5.784;2023-11-19T10:19:24;100842.31;;;13.31;75.16
80627;BME280;69982;51.758;5.784;2023-11-19T10:21:53;100837.32;;;13.34;74.75
80627;BME280;69982;51.758;5.784;2023-11-19T10:24:31;100840.12;;;13.38;74.80
80627;BME280;69982;51.758;5.784;2023-11-19T10:27:12;100841.89;;;13.39;74.20
80627;BME280;69982;51.758;5.784;2023-11-19T10:29:43;100841.05;;;13.38;74.04
80627;BME280;69982;51.758;5.784;2023-11-19T10:32:14;100846.98;;;13.37;74.32
80627;BME280;69982;51.758;5.784;2023-11-19T10:34:43;100845.37;;;13.39;74.10
80627;BME280;69982;51.758;5.784;2023-11-19T10:37:30;100849.17;;;13.40;74.03
80627;BME280;69982;51.758;5.784;2023-11-19T10:40:15;100849.41;;;13.40;74.42
80627;BME280;69982;51.758;5.784;2023-11-19T10:42:54;100846.37;;;13.41;74.20
80627;BME280;69982;51.758;5.784;2023-11-19T10:45:31;100838.59;;;13.42;74.27
80627;BME280;69982;51.758;5.784;2023-11-19T10:48:10;100834.89;;;13.42;74.01
80627;BME280;69982;51.758;5.784;2023-11-19T10:50:41;100829.63;;;13.45;73.98
80627;BME280;69982;51.758;5.784;2023-11-19T10:53:28;100833.98;;;13.56;73.57
80627;BME280;69982;51.758;5.784;2023-11-19T10:56:16;100826.64;;;13.61;73.66
80627;BME280;69982;51.758;5.784;2023-11-19T10:58:54;100820.76;;;13.72;73.37
80627;BME280;69982;51.758;5.784;2023-11-19T11:01:39;100818.77;;;13.82;73.39
80627;BME280;69982;51.758;5.784;2023-11-19T11:04:14;100817.73;;;13.89;72.77
80627;BME280;69982;51.758;5.784;2023-11-19T11:07:07;100820.70;;;13.99;73.08
80627;BME280;69982;51.758;5.784;2023-11-19T11:09:48;100820.17;;;14.10;72.42
80627;BME280;69982;51.758;5.784;2023-11-19T11:12:18;100816.77;;;14.19;71.84
80627;BME280;69982;51.758;5.784;2023-11-19T11:15:11;100815.05;;;14.27;72.37
80627;BME280;69982;51.758;5.784;2023-11-19T11:17:45;100813.05;;;14.37;72.16
80627;BME280;69982;51.758;5.784;2023-11-19T11:20:28;100805.13;;;14.47;71.78
80627;BME280;69982;51.758;5.784;2023-11-19T11:23:18;100801.06;;;14.56;71.14
80627;BME280;69982;51.758;5.784;2023-11-19T11:29:07;100793.16;;;14.55;70.50
80627;BME280;69982;51.758;5.784;2023-11-19T11:32:04;100796.79;;;14.49;69.59
80627;BME280;69982;51.758;5.784;2023-11-19T11:37:36;100792.83;;;14.40;69.95
80627;BME280;69982;51.758;5.784;2023-11-19T11:40:04;100788.96;;;14.38;70.04
80627;BME280;69982;51.758;5.784;2023-11-19T11:42:57;100792.27;;;14.33;70.05
80627;BME280;69982;51.758;5.784;2023-11-19T11:45:37;100798.31;;;14.25;70.05
80627;BME280;69982;51.758;5.784;2023-11-19T11:48:23;100796.74;;;14.14;70.46
80627;BME280;69982;51.758;5.784;2023-11-19T11:51:01;100802.09;;;14.05;70.99
80627;BME280;69982;51.758;5.784;2023-11-19T11:53:48;100801.95;;;14.01;71.44
80627;BME280;69982;51.758;5.784;2023-11-19T11:56:19;100794.90;;;13.99;71.34
80627;BME280;69982;51.758;5.784;2023-11-19T11:58:54;100791.55;;;13.96;71.60
80627;BME280;69982;51.758;5.784;2023-11-19T12:01:21;100788.69;;;13.93;71.74
80627;BME280;69982;51.758;5.784;2023-11-19T12:03:55;100792.05;;;13.88;71.99
80627;BME280;69982;51.758;5.784;2023-11-19T12:07:09;100790.31;;;13.80;71.78
80627;BME280;69982;51.758;5.784;2023-11-19T12:10:25;100788.55;;;13.78;72.16
80627;BME280;69982;51.758;5.784;2023-11-19T12:13:01;100782.64;;;13.76;71.65
80627;BME280;69982;51.758;5.784;2023-11-19T12:15:31;100792.53;;;13.71;71.63
80627;BME280;69982;51.758;5.784;2023-11-19T12:18:05;100792.64;;;13.67;72.11
80627;BME280;69982;51.758;5.784;2023-11-19T12:20:40;100790.90;;;13.64;72.47
80627;BME280;69982;51.758;5.784;2023-11-19T12:23:11;100790.19;;;13.60;72.47
80627;BME280;69982;51.758;5.784;2023-11-19T12:25:56;100787.95;;;13.62;72.61
80627;BME280;69982;51.758;5.784;2023-11-19T12:28:30;100783.34;;;13.66;72.92
80627;BME280;69982;51.758;5.784;2023-11-19T12:31:08;100782.93;;;13.69;72.65
80627;BME280;69982;51.758;5.784;2023-11-19T12:33:56;100782.59;;;13.72;72.43
80627;BME280;69982;51.758;5.784;2023-11-19T12:36:30;100781.83;;;13.71;72.71
80627;BME280;69982;51.758;5.784;2023-11-19T12:39:13;100782.44;;;13.70;72.73
80627;BME280;69982;51.758;5.784;2023-11-19T12:41:50;100784.68;;;13.68;72.50
80627;BME280;69982;51.758;5.784;2023-11-19T12:44:17;100778.30;;;13.68;72.13
80627;BME280;69982;51.758;5.784;2023-11-19T12:47:04;100778.52;;;13.71;72.19
80627;BME280;69982;51.758;5.784;2023-11-19T12:49:56;100774.03;;;13.81;72.07
80627;BME280;69982;51.758;5.784;2023-11-19T12:52:31;100776.06;;;13.90;72.03
80627;BME280;69982;51.758;5.784;2023-11-19T12:54:58;100781.91;;;13.95;71.86
80627;BME280;69982;51.758;5.784;2023-11-19T12:57:40;100784.63;;;14.01;71.81
80627;BME280;69982;51.758;5.784;2023-11-19T13:00:07;100786.48;;;14.10;71.96
80627;BME280;69982;51.758;5.784;2023-11-19T13:05:34;100786.13;;;14.36;71.50
80627;BME280;69982;51.758;5.784;2023-11-19T13:08:08;100782.38;;;14.38;70.86
80627;BME280;69982;51.758;5.784;2023-11-19T13:13:58;100777.80;;;14.32;70.83
80627;BME280;69982;51.758;5.784;2023-11-19T13:16:29;100767.61;;;14.31;70.80
80627;BME280;69982;51.758;5.784;2023-11-19T13:19:02;100766.89;;;14.29;71.03
80627;BME280;69982;51.758;5.784;2023-11-19T13:21:29;100762.46;;;14.28;70.70
80627;BME280;69982;51.758;5.784;2023-11-19T13:23:59;100764.36;;;14.24;70.50
80627;BME280;69982;51.758;5.784;2023-11-19T13:26:32;100756.80;;;14.21;70.59
80627;BME280;69982;51.758;5.784;2023-11-19T13:28:59;100759.09;;;14.16;70.49
80627;BME280;69982;51.758;5.784;2023-11-19T13:31:26;100767.39;;;14.12;71.05
80627;BME280;69982;51.758;5.784;2023-11-19T13:33:56;100770.32;;;14.07;71.78
80627;BME280;69982;51.758;5.784;2023-11-19T13:36:26;100764.33;;;13.96;73.26
80627;BME280;69982;51.758;5.784;2023-11-19T13:38:59;100756.98;;;13.85;74.36
80627;BME280;69982;51.758;5.784;2023-11-19T13:41:32;100744.34;;;13.77;75.15
80627;BME280;69982;51.758;5.784;2023-11-19T13:44:03;100749.99;;;13.71;75.36
80627;BME280;69982;51.758;5.784;2023-11-19T13:46:36;100759.23;;;13.62;75.42
80627;BME280;69982;51.758;5.784;2023-11-19T13:49:07;100755.15;;;13.55;76.25
80627;BME280;69982;51.758;5.784;2023-11-19T13:51:40;100759.61;;;13.50;76.92
80627;BME280;69982;51.758;5.784;2023-11-19T13:54:09;100762.42;;;13.45;76.88
80627;BME280;69982;51.758;5.784;2023-11-19T13:56:42;100763.23;;;13.46;76.71